Αρχική σελίδα
METAR-TAF:

METAR-TAF

Αεροδρόμια :

Presidente Prudente, Σάο Πάολο, Βραζιλία

γεωγραφικό πλάτος: 22-07S, γεωγραφικό μήκος: 051-23W, υψόμετρο: 436 μ

Παρών καιρός

Η αναφορά έγινε 1 ώρα και 15 λεπτά πριν, στις 20:00 UTC
Άνεμος 5 kt από Β
Θερμοκρασία 30°C
Υγρασία 33%
Πίεση 1012 hPa
Ορατότητα 10 χλμ και άνω
Δεν υπάρχουν νέφη με βάση κάτω από τα 1500 μ. και δεν υπάρχουν νέφη σωρειτομελανίτες.

METAR: SBDN 172000Z 36005KT CAVOK 30/12 Q1012

Χρόνος: 18:15 (21:15 UTC)

Πρόγνωση Καιρού

Η αναφορά έγινε 4 ώρες και 45 λεπτά πριν, στις 16:30 UTC
Η πρόγνωση ισχύει από τις 17 στις 18 UTC έως τις 18 στις 06 UTC
Άνεμος 8 kt από Β
Ορατότητα 10 χλμ και άνω
Λίγα νέφη σε ύψος 2500 πόδια
Καθιστάμενος
από 17 στις 22 UTC έως τις 17 στις 24 UTC
Άνεμος 5 kt από BA

TAF: SBDN 171630Z 1718/1806 35008KT 9999 FEW025 TX32/1718Z TN19/1805Z BECMG 1722/1724 04005KT RMK PGL

Μετεωρολογικές αναφορές και προγνώσεις για περισσότερα από 4000 αεροδρόμια (δελτία METAR και TAF).

Οι διαθέσιμοι σταθμοί απεικονίζονται στο χάρτη με κίτρινες και κόκκινες κουκκίδες.

Μετακινήστε το ποντίκι πάνω από τις κουκκίδες για να δείτε το όνομα του σταθμού.

Στη συνέχεια, κάντε κλικ για να δείτε τις μετεωρολογικές αναφορές και τις προγνώσεις καιρού.

Για να αλλάξετε το χάρτη: κάντε κλικ στα πράσινα κουμπιά με τον μαύρο σταυρό για να ζουμάρετε, στο πράσινο κουμπί με την παύλα για να αφαιρέσετε το ζουμ ή στα πράσινα βέλη για να αντιπαραβάλλετε χάρτες.


METAR-TAF: